Aviation Digital Data Service (ADDS)

Output produced by METARs form (0631 UTC 20 October 2018)
found at http://www.aviationweather.gov/metar/data/
 
LOWG 200620Z VRB01KT 0200 R17/0175N R35/0650U FG FEW000 SCT001 05/05 Q1025 BECMG 9999 NSW
TAF AMD LOWG 200603Z 2006/2106 VRB02KT 0200 FG BKN001 TX18/2013Z TN06/2006Z 
     BECMG 2006/2008 9999 NSW FEW060 
     TEMPO 2011/2020 33008KT BKN050 
     PROB30 
     TEMPO 2103/2106 4000 BR MIFG SCT050
       
LOWI 200620Z 26003KT 220V280 9000 FEW025 05/04 Q1027 NOSIG
TAF LOWI 200515Z 2006/2106 VRB02KT 9000 FEW015 TX18/2013Z TN04/2006Z 
     PROB30 
     TEMPO 2006/2007 1000 BCFG SCT005 
     BECMG 2011/2013 09005KT CAVOK 
     BECMG 2018/2020 7000 BKN015 
     PROB40 
     TEMPO 2020/2106 3000 BR BKN006
       
LOWK 200620Z 31003KT 2500 BR BKN002 BKN005 08/07 Q1026 BECMG 3000 FEW002 BKN006
TAF AMD LOWK 200607Z 2006/2106 VRB02KT 1800 BR SCT002 BKN006 TX18/2014Z
TN06/2105Z 
     TEMPO 2006/2008 0300 FG OVC002 
     BECMG 2009/2011 09005KT 9999 NSW FEW040 
     TEMPO 2018/2106 2000 BR SCT002 
     PROB40 
     TEMPO 2020/2106 0300 FG VV001
       
LOWL 200620Z VRB01KT 2200 BR BKN014 BKN040 07/07 Q1027 BECMG 4000 BR SCT015 BKN040
TAF LOWL 200515Z 2006/2106 VRB02KT 2000 BR BKN016 TX16/2014Z TN06/2006Z 
     PROB40 2006/2009 0600 BCFG BKN012 
     BECMG 2008/2010 26006KT 9999 NSW FEW015 SCT030 
     BECMG 2020/2022 VRB02KT 6000 BKN030 
     TEMPO 2022/2106 4000 BR
       
LOWS 200620Z VRB01KT 3700 BR FEW028 BKN032 10/09 Q1027 TEMPO 5000
TAF LOWS 200515Z 2006/2106 33004KT 6000 FEW010 BKN030 TX16/2014Z TN08/2104Z 
     TEMPO 2006/2008 4000 BR 
     TEMPO 2009/2016 34010KT 9999 FEW020 SCT030 
     PROB30 
     TEMPO 2018/2106 2000 BR SCT008 BKN012
       
LOWW 200620Z 33006KT 2900 BR FEW030 SCT032 10/09 Q1025 BECMG 5000
TAF LOWW 200515Z 2006/2112 32005KT 3000 BR FEW010 TX17/2013Z TN07/2105Z 
     PROB30 
     TEMPO 2006/2007 0700 BCFG BR SCT003 
     BECMG 2008/2010 35012KT 9999 BKN040 
     BECMG 2107/2109 35015KT NSW 
     TEMPO 2110/2112 34015G25KT -SHRA BKN030 FEW030TCU
       
LOXZ 200550Z 19002KT 0200 FG VV001 02/02 Q1026